sensor_id;sensor_type;location;lat;lon;timestamp;P1;durP1;ratioP1;P2;durP2;ratioP2
71626;SDS011;59475;52.464;13.590;2024-02-14T00:00:27;9.07;;;5.93;;
71626;SDS011;59475;52.464;13.590;2024-02-14T00:02:53;10.48;;;6.65;;
71626;SDS011;59475;52.464;13.590;2024-02-14T00:05:18;8.93;;;6.00;;
71626;SDS011;59475;52.464;13.590;2024-02-14T00:07:43;14.10;;;6.50;;
71626;SDS011;59475;52.464;13.590;2024-02-14T00:10:09;10.13;;;6.80;;
71626;SDS011;59475;52.464;13.590;2024-02-14T00:12:35;10.13;;;6.07;;
71626;SDS011;59475;52.464;13.590;2024-02-14T00:15:02;11.13;;;6.13;;
71626;SDS011;59475;52.464;13.590;2024-02-14T00:17:28;10.13;;;6.80;;
71626;SDS011;59475;52.464;13.590;2024-02-14T00:19:54;9.38;;;6.00;;
71626;SDS011;59475;52.464;13.590;2024-02-14T00:22:19;9.17;;;5.90;;
71626;SDS011;59475;52.464;13.590;2024-02-14T00:24:44;10.60;;;6.13;;
71626;SDS011;59475;52.464;13.590;2024-02-14T00:27:10;9.17;;;5.83;;
71626;SDS011;59475;52.464;13.590;2024-02-14T00:29:35;8.83;;;5.87;;
71626;SDS011;59475;52.464;13.590;2024-02-14T00:32:00;10.40;;;6.30;;
71626;SDS011;59475;52.464;13.590;2024-02-14T00:34:26;8.88;;;6.10;;
71626;SDS011;59475;52.464;13.590;2024-02-14T00:36:52;10.80;;;5.60;;
71626;SDS011;59475;52.464;13.590;2024-02-14T00:39:17;10.43;;;5.47;;
71626;SDS011;59475;52.464;13.590;2024-02-14T00:41:42;11.20;;;6.00;;
71626;SDS011;59475;52.464;13.590;2024-02-14T00:44:08;9.57;;;6.40;;
71626;SDS011;59475;52.464;13.590;2024-02-14T00:46:33;11.37;;;6.30;;
71626;SDS011;59475;52.464;13.590;2024-02-14T00:48:58;12.17;;;6.77;;
71626;SDS011;59475;52.464;13.590;2024-02-14T00:51:24;9.70;;;5.47;;
71626;SDS011;59475;52.464;13.590;2024-02-14T00:53:50;9.17;;;5.67;;
71626;SDS011;59475;52.464;13.590;2024-02-14T00:56:16;9.52;;;5.55;;
71626;SDS011;59475;52.464;13.590;2024-02-14T00:58:42;10.90;;;5.90;;
71626;SDS011;59475;52.464;13.590;2024-02-14T01:01:08;10.30;;;5.93;;
71626;SDS011;59475;52.464;13.590;2024-02-14T01:03:33;11.47;;;5.80;;
71626;SDS011;59475;52.464;13.590;2024-02-14T01:05:59;7.93;;;5.43;;
71626;SDS011;59475;52.464;13.590;2024-02-14T01:08:24;8.37;;;5.50;;
71626;SDS011;59475;52.464;13.590;2024-02-14T01:10:49;8.43;;;5.90;;
71626;SDS011;59475;52.464;13.590;2024-02-14T01:13:16;8.20;;;5.32;;
71626;SDS011;59475;52.464;13.590;2024-02-14T01:15:42;10.43;;;5.63;;
71626;SDS011;59475;52.464;13.590;2024-02-14T01:18:07;10.30;;;6.10;;
71626;SDS011;59475;52.464;13.590;2024-02-14T01:20:33;13.63;;;5.87;;
71626;SDS011;59475;52.464;13.590;2024-02-14T01:22:58;9.40;;;5.80;;
71626;SDS011;59475;52.464;13.590;2024-02-14T01:25:24;10.53;;;5.97;;
71626;SDS011;59475;52.464;13.590;2024-02-14T01:27:51;10.40;;;5.60;;
71626;SDS011;59475;52.464;13.590;2024-02-14T01:30:17;9.65;;;5.45;;
71626;SDS011;59475;52.464;13.590;2024-02-14T01:32:43;11.20;;;6.60;;
71626;SDS011;59475;52.464;13.590;2024-02-14T01:35:08;10.23;;;6.00;;
71626;SDS011;59475;52.464;13.590;2024-02-14T01:37:34;8.40;;;5.80;;
71626;SDS011;59475;52.464;13.590;2024-02-14T01:40:00;8.77;;;5.85;;
71626;SDS011;59475;52.464;13.590;2024-02-14T01:42:25;12.97;;;6.90;;
71626;SDS011;59475;52.464;13.590;2024-02-14T01:44:52;10.25;;;6.40;;
71626;SDS011;59475;52.464;13.590;2024-02-14T01:47:19;9.25;;;5.57;;
71626;SDS011;59475;52.464;13.590;2024-02-14T01:49:45;8.73;;;5.60;;
71626;SDS011;59475;52.464;13.590;2024-02-14T01:52:12;12.60;;;6.07;;
71626;SDS011;59475;52.464;13.590;2024-02-14T01:54:38;11.38;;;6.45;;
71626;SDS011;59475;52.464;13.590;2024-02-14T01:57:03;10.73;;;6.33;;
71626;SDS011;59475;52.464;13.590;2024-02-14T01:59:30;12.95;;;7.60;;
71626;SDS011;59475;52.464;13.590;2024-02-14T02:01:55;11.80;;;7.57;;
71626;SDS011;59475;52.464;13.590;2024-02-14T02:04:21;13.63;;;7.07;;
71626;SDS011;59475;52.464;13.590;2024-02-14T02:06:46;13.77;;;6.80;;
71626;SDS011;59475;52.464;13.590;2024-02-14T02:09:12;11.83;;;7.17;;
71626;SDS011;59475;52.464;13.590;2024-02-14T02:11:49;13.07;;;6.45;;
71626;SDS011;59475;52.464;13.590;2024-02-14T02:14:16;11.97;;;6.93;;
71626;SDS011;59475;52.464;13.590;2024-02-14T02:16:42;12.45;;;7.00;;
71626;SDS011;59475;52.464;13.590;2024-02-14T02:19:08;12.90;;;7.43;;
71626;SDS011;59475;52.464;13.590;2024-02-14T02:21:37;8.93;;;6.80;;
71626;SDS011;59475;52.464;13.590;2024-02-14T02:24:03;11.43;;;7.05;;
71626;SDS011;59475;52.464;13.590;2024-02-14T02:26:29;14.30;;;7.28;;
71626;SDS011;59475;52.464;13.590;2024-02-14T02:28:54;13.80;;;7.10;;
71626;SDS011;59475;52.464;13.590;2024-02-14T02:31:20;10.30;;;7.00;;
71626;SDS011;59475;52.464;13.590;2024-02-14T02:33:46;14.00;;;6.95;;
71626;SDS011;59475;52.464;13.590;2024-02-14T02:36:11;12.63;;;6.88;;
71626;SDS011;59475;52.464;13.590;2024-02-14T02:38:37;12.03;;;7.23;;
71626;SDS011;59475;52.464;13.590;2024-02-14T02:41:02;10.20;;;7.07;;
71626;SDS011;59475;52.464;13.590;2024-02-14T02:43:31;11.38;;;7.43;;
71626;SDS011;59475;52.464;13.590;2024-02-14T02:45:57;13.47;;;7.50;;
71626;SDS011;59475;52.464;13.590;2024-02-14T02:48:23;9.93;;;7.22;;
71626;SDS011;59475;52.464;13.590;2024-02-14T02:50:48;11.77;;;7.30;;
71626;SDS011;59475;52.464;13.590;2024-02-14T02:53:15;13.75;;;7.75;;
71626;SDS011;59475;52.464;13.590;2024-02-14T02:55:41;11.95;;;6.82;;
71626;SDS011;59475;52.464;13.590;2024-02-14T02:58:06;12.43;;;7.30;;
71626;SDS011;59475;52.464;13.590;2024-02-14T03:00:32;10.67;;;6.77;;
71626;SDS011;59475;52.464;13.590;2024-02-14T03:02:58;12.43;;;7.45;;
71626;SDS011;59475;52.464;13.590;2024-02-14T03:05:23;12.73;;;6.23;;
71626;SDS011;59475;52.464;13.590;2024-02-14T03:07:48;11.43;;;7.07;;
71626;SDS011;59475;52.464;13.590;2024-02-14T03:10:15;11.70;;;6.82;;
71626;SDS011;59475;52.464;13.590;2024-02-14T03:12:44;11.80;;;7.05;;
71626;SDS011;59475;52.464;13.590;2024-02-14T03:15:13;14.73;;;7.60;;
71626;SDS011;59475;52.464;13.590;2024-02-14T03:17:39;12.07;;;6.72;;
71626;SDS011;59475;52.464;13.590;2024-02-14T03:20:05;11.63;;;7.07;;
71626;SDS011;59475;52.464;13.590;2024-02-14T03:22:40;12.40;;;6.72;;
71626;SDS011;59475;52.464;13.590;2024-02-14T03:25:12;10.57;;;6.45;;
71626;SDS011;59475;52.464;13.590;2024-02-14T03:27:41;15.95;;;7.10;;
71626;SDS011;59475;52.464;13.590;2024-02-14T03:30:07;12.67;;;7.03;;
71626;SDS011;59475;52.464;13.590;2024-02-14T03:32:32;11.60;;;6.85;;
71626;SDS011;59475;52.464;13.590;2024-02-14T03:34:58;10.40;;;7.00;;
71626;SDS011;59475;52.464;13.590;2024-02-14T03:37:25;12.07;;;7.30;;
71626;SDS011;59475;52.464;13.590;2024-02-14T03:39:51;10.97;;;7.73;;
71626;SDS011;59475;52.464;13.590;2024-02-14T03:42:17;12.30;;;7.28;;
71626;SDS011;59475;52.464;13.590;2024-02-14T03:44:43;11.27;;;8.00;;
71626;SDS011;59475;52.464;13.590;2024-02-14T03:47:08;13.70;;;7.55;;
71626;SDS011;59475;52.464;13.590;2024-02-14T03:49:34;10.83;;;7.00;;
71626;SDS011;59475;52.464;13.590;2024-02-14T03:51:59;11.35;;;7.45;;
71626;SDS011;59475;52.464;13.590;2024-02-14T03:54:26;11.30;;;6.97;;
71626;SDS011;59475;52.464;13.590;2024-02-14T03:56:51;14.25;;;7.47;;
71626;SDS011;59475;52.464;13.590;2024-02-14T03:59:17;12.47;;;7.83;;
71626;SDS011;59475;52.464;13.590;2024-02-14T04:01:49;13.70;;;7.45;;
71626;SDS011;59475;52.464;13.590;2024-02-14T04:04:15;14.55;;;7.63;;
71626;SDS011;59475;52.464;13.590;2024-02-14T04:06:41;11.67;;;6.73;;
71626;SDS011;59475;52.464;13.590;2024-02-14T04:09:07;13.23;;;7.20;;
71626;SDS011;59475;52.464;13.590;2024-02-14T04:11:32;12.63;;;7.43;;
71626;SDS011;59475;52.464;13.590;2024-02-14T04:13:58;13.97;;;6.73;;
71626;SDS011;59475;52.464;13.590;2024-02-14T04:16:23;8.23;;;5.77;;
71626;SDS011;59475;52.464;13.590;2024-02-14T04:18:48;10.50;;;7.40;;
71626;SDS011;59475;52.464;13.590;2024-02-14T04:21:14;12.27;;;7.73;;
71626;SDS011;59475;52.464;13.590;2024-02-14T04:23:39;11.20;;;5.32;;
71626;SDS011;59475;52.464;13.590;2024-02-14T04:26:05;11.83;;;6.27;;
71626;SDS011;59475;52.464;13.590;2024-02-14T04:28:31;9.13;;;5.93;;
71626;SDS011;59475;52.464;13.590;2024-02-14T04:30:56;11.73;;;6.30;;
71626;SDS011;59475;52.464;13.590;2024-02-14T04:33:22;9.00;;;6.10;;
71626;SDS011;59475;52.464;13.590;2024-02-14T04:35:47;10.30;;;6.10;;
71626;SDS011;59475;52.464;13.590;2024-02-14T04:38:13;10.83;;;6.73;;
71626;SDS011;59475;52.464;13.590;2024-02-14T04:40:38;11.40;;;7.00;;
71626;SDS011;59475;52.464;13.590;2024-02-14T04:43:04;9.67;;;5.97;;
71626;SDS011;59475;52.464;13.590;2024-02-14T04:45:30;10.33;;;6.03;;
71626;SDS011;59475;52.464;13.590;2024-02-14T04:47:55;9.65;;;5.90;;
71626;SDS011;59475;52.464;13.590;2024-02-14T04:50:21;9.87;;;6.80;;
71626;SDS011;59475;52.464;13.590;2024-02-14T04:52:46;10.97;;;6.13;;
71626;SDS011;59475;52.464;13.590;2024-02-14T04:55:11;11.87;;;6.77;;
71626;SDS011;59475;52.464;13.590;2024-02-14T04:57:37;11.23;;;6.15;;
71626;SDS011;59475;52.464;13.590;2024-02-14T05:00:04;10.20;;;6.10;;
71626;SDS011;59475;52.464;13.590;2024-02-14T05:02:30;8.85;;;6.28;;
71626;SDS011;59475;52.464;13.590;2024-02-14T05:04:56;8.70;;;5.73;;
71626;SDS011;59475;52.464;13.590;2024-02-14T05:07:21;9.70;;;6.07;;
71626;SDS011;59475;52.464;13.590;2024-02-14T05:09:47;9.03;;;6.03;;
71626;SDS011;59475;52.464;13.590;2024-02-14T05:12:14;8.82;;;5.75;;
71626;SDS011;59475;52.464;13.590;2024-02-14T05:14:39;10.77;;;5.90;;
71626;SDS011;59475;52.464;13.590;2024-02-14T05:17:05;9.27;;;6.30;;
71626;SDS011;59475;52.464;13.590;2024-02-14T05:19:31;8.87;;;5.70;;
71626;SDS011;59475;52.464;13.590;2024-02-14T05:21:57;11.30;;;5.57;;
71626;SDS011;59475;52.464;13.590;2024-02-14T05:24:23;8.67;;;5.27;;
71626;SDS011;59475;52.464;13.590;2024-02-14T05:26:52;12.18;;;6.68;;
71626;SDS011;59475;52.464;13.590;2024-02-14T05:29:17;11.70;;;7.33;;
71626;SDS011;59475;52.464;13.590;2024-02-14T05:31:46;12.38;;;6.22;;
71626;SDS011;59475;52.464;13.590;2024-02-14T05:34:13;11.20;;;6.90;;
71626;SDS011;59475;52.464;13.590;2024-02-14T05:36:39;12.75;;;6.78;;
71626;SDS011;59475;52.464;13.590;2024-02-14T05:39:04;10.87;;;6.73;;
71626;SDS011;59475;52.464;13.590;2024-02-14T05:41:33;10.73;;;6.43;;
71626;SDS011;59475;52.464;13.590;2024-02-14T05:43:59;10.93;;;6.60;;
71626;SDS011;59475;52.464;13.590;2024-02-14T05:46:25;10.98;;;5.80;;
71626;SDS011;59475;52.464;13.590;2024-02-14T05:48:50;7.83;;;6.10;;
71626;SDS011;59475;52.464;13.590;2024-02-14T05:51:17;8.05;;;5.90;;
71626;SDS011;59475;52.464;13.590;2024-02-14T05:53:43;8.32;;;5.68;;
71626;SDS011;59475;52.464;13.590;2024-02-14T05:56:09;8.60;;;5.60;;
71626;SDS011;59475;52.464;13.590;2024-02-14T05:58:34;10.30;;;5.57;;
71626;SDS011;59475;52.464;13.590;2024-02-14T06:01:00;9.57;;;6.30;;
71626;SDS011;59475;52.464;13.590;2024-02-14T06:03:26;9.30;;;5.80;;
71626;SDS011;59475;52.464;13.590;2024-02-14T06:05:51;8.57;;;5.65;;
71626;SDS011;59475;52.464;13.590;2024-02-14T06:08:16;9.60;;;5.23;;
71626;SDS011;59475;52.464;13.590;2024-02-14T06:10:42;9.33;;;5.97;;
71626;SDS011;59475;52.464;13.590;2024-02-14T06:13:07;9.00;;;5.83;;
71626;SDS011;59475;52.464;13.590;2024-02-14T06:15:33;9.48;;;5.82;;
71626;SDS011;59475;52.464;13.590;2024-02-14T06:17:58;7.67;;;5.13;;
71626;SDS011;59475;52.464;13.590;2024-02-14T06:20:23;7.90;;;5.40;;
71626;SDS011;59475;52.464;13.590;2024-02-14T06:22:49;9.40;;;5.30;;
71626;SDS011;59475;52.464;13.590;2024-02-14T06:25:14;7.90;;;5.30;;
71626;SDS011;59475;52.464;13.590;2024-02-14T06:27:41;7.10;;;5.43;;
71626;SDS011;59475;52.464;13.590;2024-02-14T06:30:07;11.95;;;5.03;;
71626;SDS011;59475;52.464;13.590;2024-02-14T06:32:33;10.63;;;4.93;;
71626;SDS011;59475;52.464;13.590;2024-02-14T06:34:58;9.47;;;5.43;;
71626;SDS011;59475;52.464;13.590;2024-02-14T06:37:23;7.75;;;5.32;;
71626;SDS011;59475;52.464;13.590;2024-02-14T06:39:49;10.50;;;6.10;;
71626;SDS011;59475;52.464;13.590;2024-02-14T06:42:15;10.13;;;5.70;;
71626;SDS011;59475;52.464;13.590;2024-02-14T06:44:41;8.90;;;5.63;;
71626;SDS011;59475;52.464;13.590;2024-02-14T06:47:06;7.73;;;5.23;;
71626;SDS011;59475;52.464;13.590;2024-02-14T06:49:31;10.53;;;6.00;;
71626;SDS011;59475;52.464;13.590;2024-02-14T06:51:56;6.73;;;4.60;;
71626;SDS011;59475;52.464;13.590;2024-02-14T06:54:22;10.27;;;5.43;;
71626;SDS011;59475;52.464;13.590;2024-02-14T06:56:47;8.40;;;5.20;;
71626;SDS011;59475;52.464;13.590;2024-02-14T06:59:13;12.17;;;6.13;;
71626;SDS011;59475;52.464;13.590;2024-02-14T07:01:38;7.60;;;4.80;;
71626;SDS011;59475;52.464;13.590;2024-02-14T07:04:04;9.00;;;5.17;;
71626;SDS011;59475;52.464;13.590;2024-02-14T07:06:29;7.10;;;4.97;;
71626;SDS011;59475;52.464;13.590;2024-02-14T07:08:55;7.50;;;4.63;;
71626;SDS011;59475;52.464;13.590;2024-02-14T07:11:20;7.67;;;4.53;;
71626;SDS011;59475;52.464;13.590;2024-02-14T07:13:45;9.73;;;4.93;;
71626;SDS011;59475;52.464;13.590;2024-02-14T07:16:11;8.47;;;4.30;;
71626;SDS011;59475;52.464;13.590;2024-02-14T07:18:36;8.67;;;4.47;;
71626;SDS011;59475;52.464;13.590;2024-02-14T07:21:02;9.13;;;4.57;;
71626;SDS011;59475;52.464;13.590;2024-02-14T07:23:27;8.38;;;4.68;;
71626;SDS011;59475;52.464;13.590;2024-02-14T07:25:53;6.90;;;4.90;;
71626;SDS011;59475;52.464;13.590;2024-02-14T07:28:18;8.10;;;4.23;;
71626;SDS011;59475;52.464;13.590;2024-02-14T07:30:44;5.50;;;3.97;;
71626;SDS011;59475;52.464;13.590;2024-02-14T07:33:09;7.13;;;4.03;;
71626;SDS011;59475;52.464;13.590;2024-02-14T07:35:36;8.67;;;4.53;;
71626;SDS011;59475;52.464;13.590;2024-02-14T07:38:02;8.20;;;4.43;;
71626;SDS011;59475;52.464;13.590;2024-02-14T07:40:27;7.50;;;4.33;;
71626;SDS011;59475;52.464;13.590;2024-02-14T07:42:55;6.10;;;3.95;;
71626;SDS011;59475;52.464;13.590;2024-02-14T07:45:21;7.67;;;4.93;;
71626;SDS011;59475;52.464;13.590;2024-02-14T07:47:46;6.80;;;4.70;;
71626;SDS011;59475;52.464;13.590;2024-02-14T07:50:14;8.23;;;4.55;;
71626;SDS011;59475;52.464;13.590;2024-02-14T07:52:43;8.27;;;4.97;;
71626;SDS011;59475;52.464;13.590;2024-02-14T07:55:09;7.87;;;4.47;;
71626;SDS011;59475;52.464;13.590;2024-02-14T07:57:39;5.93;;;4.20;;
71626;SDS011;59475;52.464;13.590;2024-02-14T08:00:05;6.97;;;4.60;;
71626;SDS011;59475;52.464;13.590;2024-02-14T08:02:35;6.03;;;4.68;;
71626;SDS011;59475;52.464;13.590;2024-02-14T08:05:01;6.33;;;4.07;;
71626;SDS011;59475;52.464;13.590;2024-02-14T08:07:26;6.33;;;4.20;;
71626;SDS011;59475;52.464;13.590;2024-02-14T08:09:52;5.57;;;4.53;;
71626;SDS011;59475;52.464;13.590;2024-02-14T08:12:18;12.13;;;4.70;;
71626;SDS011;59475;52.464;13.590;2024-02-14T08:14:43;6.17;;;4.03;;
71626;SDS011;59475;52.464;13.590;2024-02-14T08:17:09;6.40;;;4.13;;
71626;SDS011;59475;52.464;13.590;2024-02-14T08:19:34;8.43;;;3.93;;
71626;SDS011;59475;52.464;13.590;2024-02-14T08:21:59;4.47;;;3.70;;
71626;SDS011;59475;52.464;13.590;2024-02-14T08:24:26;6.13;;;4.07;;
71626;SDS011;59475;52.464;13.590;2024-02-14T08:26:51;6.72;;;4.10;;
71626;SDS011;59475;52.464;13.590;2024-02-14T08:29:17;5.40;;;3.60;;
71626;SDS011;59475;52.464;13.590;2024-02-14T08:31:43;5.47;;;3.35;;
71626;SDS011;59475;52.464;13.590;2024-02-14T08:34:08;6.77;;;3.90;;
71626;SDS011;59475;52.464;13.590;2024-02-14T08:36:34;6.53;;;3.77;;
71626;SDS011;59475;52.464;13.590;2024-02-14T08:39:05;6.35;;;3.45;;
71626;SDS011;59475;52.464;13.590;2024-02-14T08:41:32;5.82;;;4.07;;
71626;SDS011;59475;52.464;13.590;2024-02-14T08:43:57;6.07;;;3.53;;
71626;SDS011;59475;52.464;13.590;2024-02-14T08:46:22;11.83;;;4.23;;
71626;SDS011;59475;52.464;13.590;2024-02-14T08:48:48;5.85;;;4.03;;
71626;SDS011;59475;52.464;13.590;2024-02-14T08:51:14;7.25;;;3.83;;
71626;SDS011;59475;52.464;13.590;2024-02-14T08:53:39;8.43;;;4.53;;
71626;SDS011;59475;52.464;13.590;2024-02-14T08:56:07;10.80;;;3.50;;
71626;SDS011;59475;52.464;13.590;2024-02-14T08:58:33;6.87;;;3.77;;
71626;SDS011;59475;52.464;13.590;2024-02-14T09:01:00;6.85;;;4.18;;
71626;SDS011;59475;52.464;13.590;2024-02-14T09:03:25;7.00;;;3.87;;
71626;SDS011;59475;52.464;13.590;2024-02-14T09:05:50;6.40;;;3.60;;
71626;SDS011;59475;52.464;13.590;2024-02-14T09:08:18;5.32;;;3.35;;
71626;SDS011;59475;52.464;13.590;2024-02-14T09:10:43;7.40;;;4.23;;
71626;SDS011;59475;52.464;13.590;2024-02-14T09:13:10;7.93;;;3.75;;
71626;SDS011;59475;52.464;13.590;2024-02-14T09:15:36;6.10;;;3.93;;
71626;SDS011;59475;52.464;13.590;2024-02-14T09:18:01;8.70;;;4.23;;
71626;SDS011;59475;52.464;13.590;2024-02-14T09:20:28;4.97;;;3.88;;
71626;SDS011;59475;52.464;13.590;2024-02-14T09:22:54;6.15;;;4.25;;
71626;SDS011;59475;52.464;13.590;2024-02-14T09:25:20;4.60;;;3.03;;
71626;SDS011;59475;52.464;13.590;2024-02-14T09:27:48;5.78;;;3.63;;
71626;SDS011;59475;52.464;13.590;2024-02-14T09:30:13;5.40;;;3.97;;
71626;SDS011;59475;52.464;13.590;2024-02-14T09:32:39;4.82;;;3.42;;
71626;SDS011;59475;52.464;13.590;2024-02-14T09:35:05;3.77;;;3.00;;
71626;SDS011;59475;52.464;13.590;2024-02-14T09:37:31;5.70;;;3.95;;
71626;SDS011;59475;52.464;13.590;2024-02-14T09:39:57;7.32;;;4.00;;
71626;SDS011;59475;52.464;13.590;2024-02-14T09:42:25;4.73;;;3.00;;
71626;SDS011;59475;52.464;13.590;2024-02-14T09:44:57;6.90;;;2.70;;
71626;SDS011;59475;52.464;13.590;2024-02-14T09:47:23;5.80;;;3.57;;
71626;SDS011;59475;52.464;13.590;2024-02-14T09:49:50;4.55;;;3.38;;
71626;SDS011;59475;52.464;13.590;2024-02-14T09:52:17;4.53;;;3.40;;
71626;SDS011;59475;52.464;13.590;2024-02-14T09:54:44;4.00;;;3.28;;
71626;SDS011;59475;52.464;13.590;2024-02-14T09:57:10;6.67;;;3.60;;
71626;SDS011;59475;52.464;13.590;2024-02-14T09:59:37;4.93;;;3.33;;
71626;SDS011;59475;52.464;13.590;2024-02-14T10:02:02;8.05;;;3.70;;
71626;SDS011;59475;52.464;13.590;2024-02-14T10:04:28;6.90;;;4.10;;
71626;SDS011;59475;52.464;13.590;2024-02-14T10:06:53;7.63;;;3.70;;
71626;SDS011;59475;52.464;13.590;2024-02-14T10:09:20;6.93;;;4.00;;
71626;SDS011;59475;52.464;13.590;2024-02-14T10:11:46;5.28;;;2.55;;
71626;SDS011;59475;52.464;13.590;2024-02-14T10:14:11;6.97;;;3.28;;
71626;SDS011;59475;52.464;13.590;2024-02-14T10:16:37;5.50;;;3.73;;
71626;SDS011;59475;52.464;13.590;2024-02-14T10:19:03;3.80;;;2.47;;
71626;SDS011;59475;52.464;13.590;2024-02-14T10:21:29;6.33;;;3.27;;
71626;SDS011;59475;52.464;13.590;2024-02-14T10:24:01;6.03;;;2.97;;
71626;SDS011;59475;52.464;13.590;2024-02-14T10:26:27;7.05;;;3.45;;
71626;SDS011;59475;52.464;13.590;2024-02-14T10:28:56;6.37;;;3.10;;
71626;SDS011;59475;52.464;13.590;2024-02-14T10:31:24;7.88;;;3.40;;
71626;SDS011;59475;52.464;13.590;2024-02-14T10:33:51;6.00;;;3.22;;
71626;SDS011;59475;52.464;13.590;2024-02-14T10:36:21;5.25;;;3.50;;
71626;SDS011;59475;52.464;13.590;2024-02-14T10:38:47;4.28;;;3.30;;
71626;SDS011;59475;52.464;13.590;2024-02-14T10:41:15;3.13;;;2.83;;
71626;SDS011;59475;52.464;13.590;2024-02-14T10:43:41;4.00;;;2.65;;
71626;SDS011;59475;52.464;13.590;2024-02-14T10:46:19;6.03;;;3.47;;
71626;SDS011;59475;52.464;13.590;2024-02-14T10:48:52;3.88;;;3.47;;
71626;SDS011;59475;52.464;13.590;2024-02-14T10:51:19;4.03;;;3.30;;
71626;SDS011;59475;52.464;13.590;2024-02-14T10:53:46;6.82;;;3.40;;
71626;SDS011;59475;52.464;13.590;2024-02-14T10:56:17;5.95;;;3.22;;
71626;SDS011;59475;52.464;13.590;2024-02-14T10:58:47;7.30;;;3.17;;
71626;SDS011;59475;52.464;13.590;2024-02-14T11:01:13;7.30;;;3.20;;
71626;SDS011;59475;52.464;13.590;2024-02-14T11:03:41;5.13;;;3.00;;
71626;SDS011;59475;52.464;13.590;2024-02-14T11:06:08;3.90;;;3.00;;
71626;SDS011;59475;52.464;13.590;2024-02-14T11:08:33;6.93;;;3.40;;
71626;SDS011;59475;52.464;13.590;2024-02-14T11:11:00;7.30;;;3.53;;
71626;SDS011;59475;52.464;13.590;2024-02-14T11:13:26;6.13;;;3.20;;
71626;SDS011;59475;52.464;13.590;2024-02-14T11:16:01;7.95;;;3.08;;
71626;SDS011;59475;52.464;13.590;2024-02-14T11:18:27;8.23;;;3.28;;
71626;SDS011;59475;52.464;13.590;2024-02-14T11:20:58;5.10;;;3.70;;
71626;SDS011;59475;52.464;13.590;2024-02-14T11:23:24;5.50;;;3.72;;
71626;SDS011;59475;52.464;13.590;2024-02-14T11:26:03;6.10;;;3.30;;
71626;SDS011;59475;52.464;13.590;2024-02-14T11:28:30;5.60;;;3.65;;
71626;SDS011;59475;52.464;13.590;2024-02-14T11:31:01;3.90;;;2.73;;
71626;SDS011;59475;52.464;13.590;2024-02-14T11:33:28;4.13;;;3.13;;
71626;SDS011;59475;52.464;13.590;2024-02-14T11:35:54;5.80;;;3.07;;
71626;SDS011;59475;52.464;13.590;2024-02-14T11:38:21;4.88;;;2.33;;
71626;SDS011;59475;52.464;13.590;2024-02-14T11:40:48;3.90;;;2.95;;
71626;SDS011;59475;52.464;13.590;2024-02-14T11:43:14;4.07;;;2.20;;
71626;SDS011;59475;52.464;13.590;2024-02-14T11:45:49;5.50;;;3.05;;
71626;SDS011;59475;52.464;13.590;2024-02-14T11:48:15;5.80;;;2.65;;
71626;SDS011;59475;52.464;13.590;2024-02-14T11:50:43;5.67;;;2.60;;
71626;SDS011;59475;52.464;13.590;2024-02-14T11:53:10;4.88;;;3.30;;
71626;SDS011;59475;52.464;13.590;2024-02-14T11:55:37;4.13;;;2.85;;
71626;SDS011;59475;52.464;13.590;2024-02-14T11:58:12;3.72;;;2.70;;
71626;SDS011;59475;52.464;13.590;2024-02-14T12:00:39;3.40;;;2.75;;
71626;SDS011;59475;52.464;13.590;2024-02-14T12:03:12;9.30;;;4.00;;
71626;SDS011;59475;52.464;13.590;2024-02-14T12:05:41;6.45;;;2.83;;
71626;SDS011;59475;52.464;13.590;2024-02-14T12:08:09;6.03;;;2.90;;
71626;SDS011;59475;52.464;13.590;2024-02-14T12:10:35;7.18;;;3.70;;
71626;SDS011;59475;52.464;13.590;2024-02-14T12:13:12;7.07;;;3.33;;
71626;SDS011;59475;52.464;13.590;2024-02-14T12:15:42;5.73;;;2.87;;
71626;SDS011;59475;52.464;13.590;2024-02-14T12:18:09;6.43;;;3.28;;
71626;SDS011;59475;52.464;13.590;2024-02-14T12:20:35;6.75;;;4.40;;
71626;SDS011;59475;52.464;13.590;2024-02-14T12:23:02;5.85;;;3.47;;
71626;SDS011;59475;52.464;13.590;2024-02-14T12:25:27;5.10;;;3.43;;
71626;SDS011;59475;52.464;13.590;2024-02-14T12:27:54;8.07;;;4.10;;
71626;SDS011;59475;52.464;13.590;2024-02-14T12:30:22;4.95;;;3.55;;
71626;SDS011;59475;52.464;13.590;2024-02-14T12:33:00;4.10;;;2.77;;
71626;SDS011;59475;52.464;13.590;2024-02-14T12:35:34;2.60;;;2.40;;
71626;SDS011;59475;52.464;13.590;2024-02-14T12:38:05;6.03;;;3.88;;
71626;SDS011;59475;52.464;13.590;2024-02-14T12:40:34;6.25;;;3.63;;
71626;SDS011;59475;52.464;13.590;2024-02-14T12:43:00;9.40;;;4.00;;
71626;SDS011;59475;52.464;13.590;2024-02-14T12:45:26;9.00;;;3.90;;
71626;SDS011;59475;52.464;13.590;2024-02-14T12:47:51;6.23;;;4.50;;
71626;SDS011;59475;52.464;13.590;2024-02-14T12:50:18;3.58;;;2.63;;
71626;SDS011;59475;52.464;13.590;2024-02-14T12:52:45;4.60;;;3.20;;
71626;SDS011;59475;52.464;13.590;2024-02-14T12:55:11;7.20;;;4.15;;
71626;SDS011;59475;52.464;13.590;2024-02-14T12:57:36;7.07;;;4.37;;
71626;SDS011;59475;52.464;13.590;2024-02-14T13:00:02;7.70;;;4.47;;
71626;SDS011;59475;52.464;13.590;2024-02-14T13:02:31;9.37;;;4.43;;
71626;SDS011;59475;52.464;13.590;2024-02-14T13:04:57;7.72;;;4.68;;
71626;SDS011;59475;52.464;13.590;2024-02-14T13:07:22;6.77;;;4.87;;
71626;SDS011;59475;52.464;13.590;2024-02-14T13:09:47;7.50;;;4.70;;
71626;SDS011;59475;52.464;13.590;2024-02-14T13:12:13;7.28;;;4.53;;
71626;SDS011;59475;52.464;13.590;2024-02-14T13:14:39;10.03;;;5.63;;
71626;SDS011;59475;52.464;13.590;2024-02-14T13:17:05;10.13;;;4.80;;
71626;SDS011;59475;52.464;13.590;2024-02-14T13:19:31;6.47;;;4.30;;
71626;SDS011;59475;52.464;13.590;2024-02-14T13:21:57;7.07;;;4.63;;
71626;SDS011;59475;52.464;13.590;2024-02-14T13:24:22;9.13;;;4.90;;
71626;SDS011;59475;52.464;13.590;2024-02-14T13:26:47;6.47;;;3.57;;
71626;SDS011;59475;52.464;13.590;2024-02-14T13:29:13;8.60;;;5.03;;
71626;SDS011;59475;52.464;13.590;2024-02-14T13:31:38;8.90;;;4.87;;
71626;SDS011;59475;52.464;13.590;2024-02-14T13:34:03;6.30;;;3.60;;
71626;SDS011;59475;52.464;13.590;2024-02-14T13:36:29;9.53;;;4.50;;
71626;SDS011;59475;52.464;13.590;2024-02-14T13:38:54;10.60;;;4.37;;
71626;SDS011;59475;52.464;13.590;2024-02-14T13:41:20;7.43;;;4.65;;
71626;SDS011;59475;52.464;13.590;2024-02-14T13:43:45;6.93;;;4.70;;
71626;SDS011;59475;52.464;13.590;2024-02-14T13:46:10;5.97;;;3.97;;
71626;SDS011;59475;52.464;13.590;2024-02-14T13:48:37;5.97;;;4.03;;
71626;SDS011;59475;52.464;13.590;2024-02-14T13:51:03;6.97;;;4.20;;
71626;SDS011;59475;52.464;13.590;2024-02-14T13:53:28;11.23;;;4.60;;
71626;SDS011;59475;52.464;13.590;2024-02-14T13:55:54;8.60;;;4.33;;
71626;SDS011;59475;52.464;13.590;2024-02-14T13:58:20;9.45;;;5.20;;
71626;SDS011;59475;52.464;13.590;2024-02-14T14:00:45;9.10;;;4.93;;
71626;SDS011;59475;52.464;13.590;2024-02-14T14:03:11;9.07;;;4.87;;
71626;SDS011;59475;52.464;13.590;2024-02-14T14:05:36;9.10;;;5.10;;
71626;SDS011;59475;52.464;13.590;2024-02-14T14:08:02;8.33;;;4.90;;
71626;SDS011;59475;52.464;13.590;2024-02-14T14:10:28;7.50;;;4.47;;
71626;SDS011;59475;52.464;13.590;2024-02-14T14:12:54;8.60;;;5.23;;
71626;SDS011;59475;52.464;13.590;2024-02-14T14:15:20;10.90;;;5.30;;
71626;SDS011;59475;52.464;13.590;2024-02-14T14:17:47;10.20;;;5.03;;
71626;SDS011;59475;52.464;13.590;2024-02-14T14:20:12;10.05;;;4.70;;
71626;SDS011;59475;52.464;13.590;2024-02-14T14:22:37;9.53;;;5.13;;
71626;SDS011;59475;52.464;13.590;2024-02-14T14:25:04;10.67;;;5.03;;